Black Rock, New Mexico
Current Conditions -  °F | °C
As of 3:53 PM on Monday 22 Dec 2014 (Local Time) from KGUP Reporting Station
Broken Clouds Broken Clouds  
Wind Chill: 40°   Ceiling: 4900
Heat Index: 48°   Visibility: 10mi
Dew Point: 34°   Wind: 23mph
Humidity: 58%   Direction: 310°NW
Pressure: 29.85"   Gusts: 29mph
Location:  35.0898°N, 108.763°W
Report Text: KGUP 222253Z AUTO 31020G25KT 10SM BKN049 09/01 A2985 RMK AO2 PK WND 29030/2226 RAB32E42 SLP073 P0000 T00890011
Loading
Personal Weather Stations






























Interactive Weather Map New forecast layout! Learn more

10-Day Weather Forecast

Advertisements
Track Severe Weather on mobile